Time;durP1;ratioP1;P1;durP2;ratioP2;P2;SDS_P1;SDS_P2;PMS_P1;PMS_P2;Temp;Humidity;BMP_temperature;BMP_pressure;BME280_temperature;BME280_humidity;BME280_pressure;Samples;Min_cycle;Max_cycle;Signal;HPM_P1;HPM_P2
2022/12/31 00:00:37;;;;;;;1.73;1.10;;;15.20;99.90;;;;;;5016324;28;20829;-70
2022/12/31 00:03:04;;;;;;;1.60;1.23;;;15.20;99.90;;;;;;5009374;28;20176;-70
2022/12/31 00:05:31;;;;;;;1.60;1.10;;;15.20;99.90;;;;;;5012645;28;20463;-72
2022/12/31 00:07:57;;;;;;;1.87;1.43;;;15.20;99.90;;;;;;5012059;28;20454;-71
2022/12/31 00:10:23;;;;;;;5.00;1.40;;;15.20;99.90;;;;;;5011527;28;20520;-71
2022/12/31 00:12:48;;;;;;;1.60;1.20;;;15.20;99.90;;;;;;5014574;28;20537;-70
2022/12/31 00:15:14;;;;;;;1.70;1.17;;;15.20;99.90;;;;;;5014687;28;20187;-71
2022/12/31 00:17:39;;;;;;;1.90;1.20;;;15.20;99.90;;;;;;5009834;28;20257;-70
2022/12/31 00:20:05;;;;;;;1.60;1.30;;;15.20;99.90;;;;;;5012652;28;21047;-71
2022/12/31 00:22:32;;;;;;;6.83;1.20;;;15.20;99.90;;;;;;5011038;28;21336;-70
2022/12/31 00:24:57;;;;;;;2.10;1.77;;;15.20;99.90;;;;;;5012991;28;20570;-70
2022/12/31 00:27:23;;;;;;;2.03;1.27;;;15.10;99.90;;;;;;5010199;28;20983;-72
2022/12/31 00:29:48;;;;;;;1.80;1.30;;;15.10;99.90;;;;;;5009878;28;20897;-72
2022/12/31 00:32:14;;;;;;;2.00;1.33;;;15.10;99.90;;;;;;5008661;28;20863;-70
2022/12/31 00:34:39;;;;;;;1.70;1.37;;;15.10;99.90;;;;;;5011040;28;20218;-70
2022/12/31 00:37:05;;;;;;;2.00;1.33;;;15.10;99.90;;;;;;5009967;28;20703;-71
2022/12/31 00:39:30;;;;;;;1.67;1.20;;;15.10;99.90;;;;;;5018092;28;20574;-71
2022/12/31 00:41:56;;;;;;;1.83;1.37;;;15.10;99.90;;;;;;5014508;28;20184;-71
2022/12/31 00:44:22;;;;;;;2.00;1.43;;;15.10;99.90;;;;;;5019717;28;20184;-71
2022/12/31 00:46:47;;;;;;;2.03;1.40;;;15.10;99.90;;;;;;5009849;28;21094;-71
2022/12/31 00:49:13;;;;;;;1.87;1.27;;;15.10;99.90;;;;;;5012276;28;20198;-71
2022/12/31 00:51:39;;;;;;;1.63;1.23;;;15.00;99.90;;;;;;5009283;28;20254;-71
2022/12/31 00:54:04;;;;;;;1.90;1.23;;;15.00;99.90;;;;;;5014800;28;20454;-71
2022/12/31 00:56:30;;;;;;;2.97;1.50;;;15.00;99.90;;;;;;5014244;28;20227;-71
2022/12/31 00:58:58;;;;;;;4.40;1.50;;;15.10;99.90;;;;;;5012948;28;20189;-71
2022/12/31 01:01:29;;;;;;;1.83;1.30;;;15.10;99.90;;;;;;5018721;28;20431;-72
2022/12/31 01:04:00;;;;;;;2.87;1.40;;;15.10;99.90;;;;;;5010067;28;21337;-71
2022/12/31 01:06:26;;;;;;;2.60;1.17;;;15.20;99.90;;;;;;5013838;28;20864;-71
2022/12/31 01:08:54;;;;;;;5.83;1.40;;;15.20;99.90;;;;;;5007726;28;20443;-71
2022/12/31 01:11:23;;;;;;;2.67;1.23;;;15.20;99.90;;;;;;5017019;28;20172;-71
2022/12/31 01:13:53;;;;;;;1.80;1.33;;;15.20;99.90;;;;;;5013169;28;20447;-71
2022/12/31 01:16:24;;;;;;;3.90;1.60;;;15.10;99.90;;;;;;5010142;28;21014;-71
2022/12/31 01:18:51;;;;;;;4.93;2.40;;;15.10;99.90;;;;;;5012691;28;20921;-71
2022/12/31 01:21:18;;;;;;;2.40;1.30;;;15.10;99.90;;;;;;5013311;28;20447;-71
2022/12/31 01:23:44;;;;;;;1.90;1.40;;;15.20;99.90;;;;;;5015512;28;20446;-71
2022/12/31 01:26:13;;;;;;;1.70;1.30;;;15.30;99.90;;;;;;5009449;28;20540;-71
2022/12/31 01:28:38;;;;;;;3.53;1.43;;;15.30;99.90;;;;;;5011548;28;20736;-71
2022/12/31 01:31:10;;;;;;;1.90;1.37;;;15.40;99.90;;;;;;5009261;28;20442;-71
2022/12/31 01:33:36;;;;;;;2.33;1.33;;;15.40;99.90;;;;;;5010843;28;21228;-71
2022/12/31 01:36:14;;;;;;;2.10;1.40;;;15.40;99.90;;;;;;5011614;28;20506;-71
2022/12/31 01:38:41;;;;;;;3.00;1.27;;;15.50;99.90;;;;;;5013243;28;21148;-71
2022/12/31 01:41:10;;;;;;;1.70;1.30;;;15.50;99.90;;;;;;5023974;28;21005;-71
2022/12/31 01:43:53;;;;;;;2.07;1.43;;;15.60;99.90;;;;;;5011574;28;20452;-71
2022/12/31 01:46:36;;;;;;;1.80;1.30;;;15.70;99.90;;;;;;5013094;28;20915;-71
2022/12/31 01:49:20;;;;;;;1.97;1.27;;;15.70;99.90;;;;;;5006038;28;20533;-73
2022/12/31 01:51:50;;;;;;;1.97;1.40;;;15.80;99.90;;;;;;5013968;28;20460;-71
2022/12/31 01:54:19;;;;;;;4.13;2.23;;;15.80;99.90;;;;;;5008902;28;20503;-71
2022/12/31 01:56:47;;;;;;;1.73;1.30;;;15.80;99.90;;;;;;5012255;28;20468;-71
2022/12/31 01:59:15;;;;;;;2.30;1.60;;;15.90;99.90;;;;;;5012931;28;20993;-71
2022/12/31 02:01:41;;;;;;;2.53;1.50;;;15.90;99.90;;;;;;5012153;28;20793;-72
2022/12/31 02:04:11;;;;;;;1.70;1.50;;;15.90;99.90;;;;;;5010104;28;20936;-72
2022/12/31 02:07:05;;;;;;;2.83;1.60;;;16.00;99.90;;;;;;5011457;28;20537;-72
2022/12/31 02:09:32;;;;;;;2.33;1.17;;;16.00;99.90;;;;;;5007542;28;20534;-71
2022/12/31 02:11:58;;;;;;;4.43;1.60;;;16.00;99.90;;;;;;5014652;28;20430;-71
2022/12/31 02:14:30;;;;;;;2.33;1.40;;;16.10;99.90;;;;;;5010948;28;20515;-71
2022/12/31 02:17:29;;;;;;;2.20;1.50;;;16.10;99.90;;;;;;5015332;28;20462;-71
2022/12/31 02:19:54;;;;;;;2.30;1.50;;;16.20;99.90;;;;;;5011298;28;20702;-70
2022/12/31 02:22:45;;;;;;;1.80;1.20;;;16.20;99.90;;;;;;5006477;28;20423;-70
2022/12/31 02:25:48;;;;;;;3.50;1.20;;;16.20;99.90;;;;;;5007384;28;20212;-70
2022/12/31 02:28:17;;;;;;;3.20;1.50;;;16.30;99.90;;;;;;5012634;28;20897;-70
2022/12/31 02:30:49;;;;;;;2.40;1.50;;;16.20;99.90;;;;;;5010258;28;20451;-71
2022/12/31 02:33:34;;;;;;;2.00;1.50;;;16.30;99.90;;;;;;5010489;28;20521;-70
2022/12/31 02:36:10;;;;;;;2.70;1.60;;;16.30;99.90;;;;;;5010130;28;20505;-70
2022/12/31 02:38:41;;;;;;;2.30;1.47;;;16.30;99.90;;;;;;5014858;28;20453;-70
2022/12/31 02:44:01;;;;;;;5.13;1.50;;;16.40;99.90;;;;;;5010535;28;20429;-71
2022/12/31 02:46:44;;;;;;;1.80;1.30;;;16.40;99.90;;;;;;5016457;28;20454;-69
2022/12/31 02:49:22;;;;;;;2.00;1.50;;;16.50;99.90;;;;;;5010872;28;20438;-70
2022/12/31 02:52:09;;;;;;;1.93;1.20;;;16.50;99.90;;;;;;5007570;28;20465;-70
2022/12/31 02:54:57;;;;;;;2.13;1.50;;;16.50;99.90;;;;;;5008949;28;20435;-70
2022/12/31 02:57:36;;;;;;;1.90;1.20;;;16.50;99.90;;;;;;5017311;28;20588;-70
2022/12/31 03:02:55;;;;;;;1.60;1.13;;;16.60;99.90;;;;;;5013132;28;20443;-69
2022/12/31 03:05:23;;;;;;;1.90;1.40;;;16.60;99.90;;;;;;5014365;28;20430;-69
2022/12/31 03:07:49;;;;;;;2.27;1.50;;;16.60;99.90;;;;;;5013761;28;20443;-71
2022/12/31 03:10:15;;;;;;;2.23;1.43;;;16.60;99.90;;;;;;5016129;28;20434;-71
2022/12/31 03:12:45;;;;;;;2.40;1.43;;;16.60;99.90;;;;;;5013993;28;20438;-71
2022/12/31 03:15:18;;;;;;;1.67;1.23;;;16.60;99.90;;;;;;5015467;28;20533;-71
2022/12/31 03:17:59;;;;;;;1.70;1.10;;;16.60;99.90;;;;;;5012839;28;20446;-70
2022/12/31 03:23:21;;;;;;;3.00;1.50;;;16.60;99.90;;;;;;5017430;28;20813;-70
2022/12/31 03:25:47;;;;;;;2.27;1.40;;;16.70;99.90;;;;;;5014532;28;20566;-69
2022/12/31 03:28:15;;;;;;;2.13;1.30;;;16.70;99.90;;;;;;5017960;28;20514;-70
2022/12/31 03:30:44;;;;;;;1.80;1.47;;;16.70;99.90;;;;;;5014728;28;20188;-70
2022/12/31 03:33:11;;;;;;;2.27;1.50;;;16.70;99.90;;;;;;5017675;28;21165;-70
2022/12/31 03:35:37;;;;;;;1.90;1.40;;;16.70;99.90;;;;;;5011630;28;20944;-70
2022/12/31 03:38:03;;;;;;;2.77;1.57;;;16.70;99.90;;;;;;5008686;28;20816;-70
2022/12/31 03:40:31;;;;;;;2.40;1.50;;;16.70;99.90;;;;;;5013020;28;20557;-69
2022/12/31 03:42:57;;;;;;;2.33;1.40;;;16.80;99.90;;;;;;5016699;28;20820;-70
2022/12/31 03:45:23;;;;;;;1.97;1.43;;;16.80;99.90;;;;;;5015947;28;20436;-70
2022/12/31 03:47:49;;;;;;;3.00;1.20;;;16.70;99.90;;;;;;5011321;28;20435;-70
2022/12/31 03:50:16;;;;;;;2.27;1.30;;;16.70;99.90;;;;;;5017056;28;20434;-71
2022/12/31 03:52:42;;;;;;;1.80;1.20;;;16.70;99.90;;;;;;5014696;28;20455;-70
2022/12/31 03:55:09;;;;;;;2.33;1.30;;;16.80;99.90;;;;;;5006841;28;20961;-70
2022/12/31 03:57:35;;;;;;;5.93;2.50;;;16.80;99.90;;;;;;5012349;28;20470;-71
2022/12/31 04:00:01;;;;;;;1.90;1.20;;;16.70;99.90;;;;;;5012543;28;20994;-70
2022/12/31 04:02:27;;;;;;;2.23;1.43;;;16.70;99.90;;;;;;5011875;28;20184;-71
2022/12/31 04:04:52;;;;;;;1.70;1.20;;;16.80;99.90;;;;;;5012540;28;20462;-71
2022/12/31 04:07:18;;;;;;;2.40;1.40;;;16.80;99.90;;;;;;5011033;28;20864;-70
2022/12/31 04:09:43;;;;;;;1.90;1.63;;;16.80;99.90;;;;;;5015213;28;20585;-70
2022/12/31 04:12:09;;;;;;;2.27;1.20;;;16.80;99.90;;;;;;5015130;28;20188;-70
2022/12/31 04:14:34;;;;;;;3.27;1.60;;;16.80;99.90;;;;;;5015449;28;20319;-70
2022/12/31 04:17:00;;;;;;;1.80;1.40;;;16.80;99.90;;;;;;5010779;28;20258;-70
2022/12/31 04:19:25;;;;;;;1.90;1.30;;;16.90;99.90;;;;;;5020338;28;20852;-72
2022/12/31 04:21:51;;;;;;;2.97;1.33;;;16.80;99.90;;;;;;5009185;28;20169;-70
2022/12/31 04:24:17;;;;;;;3.00;1.53;;;16.80;99.90;;;;;;5014468;28;20172;-70
2022/12/31 04:26:42;;;;;;;1.80;1.30;;;16.80;99.90;;;;;;5013508;28;20200;-70
2022/12/31 04:29:09;;;;;;;3.87;1.50;;;16.90;99.90;;;;;;5012248;28;20879;-70
2022/12/31 04:31:35;;;;;;;2.37;1.40;;;16.90;99.90;;;;;;5013909;28;20895;-71
2022/12/31 04:34:00;;;;;;;3.10;1.43;;;16.90;99.90;;;;;;5010857;28;20438;-70
2022/12/31 04:36:26;;;;;;;1.90;1.40;;;16.90;99.90;;;;;;5014473;28;20211;-70
2022/12/31 04:38:51;;;;;;;1.90;1.50;;;16.90;99.90;;;;;;5012416;28;20180;-70
2022/12/31 04:41:17;;;;;;;2.27;1.43;;;16.90;99.90;;;;;;5016671;28;20183;-70
2022/12/31 04:43:46;;;;;;;3.33;1.50;;;17.00;99.90;;;;;;5013808;28;20184;-70
2022/12/31 04:46:12;;;;;;;1.90;1.40;;;17.00;99.90;;;;;;5013511;28;20201;-69
2022/12/31 04:48:38;;;;;;;2.37;1.53;;;17.00;99.90;;;;;;5015284;28;20471;-69
2022/12/31 04:51:04;;;;;;;3.10;1.33;;;16.90;99.90;;;;;;5015321;28;20486;-70
2022/12/31 04:53:29;;;;;;;2.10;1.60;;;16.90;99.90;;;;;;5015833;28;20193;-70
2022/12/31 04:55:55;;;;;;;1.80;1.30;;;16.90;99.90;;;;;;5014000;28;21221;-70
2022/12/31 04:58:21;;;;;;;3.30;1.70;;;16.90;99.90;;;;;;5011259;28;20192;-69
2022/12/31 05:00:48;;;;;;;2.70;1.60;;;16.90;99.90;;;;;;5020296;28;20751;-69
2022/12/31 05:03:15;;;;;;;2.80;1.70;;;16.90;99.90;;;;;;5007716;28;20847;-69
2022/12/31 05:05:44;;;;;;;1.80;1.20;;;16.90;99.90;;;;;;5011680;28;20459;-69
2022/12/31 05:08:10;;;;;;;2.03;1.37;;;16.90;99.90;;;;;;5016071;28;20435;-69
2022/12/31 05:10:40;;;;;;;1.80;1.50;;;17.00;99.90;;;;;;5013109;28;20504;-69
2022/12/31 05:13:05;;;;;;;1.70;1.20;;;16.90;99.90;;;;;;5011094;28;20898;-69
2022/12/31 05:15:31;;;;;;;2.80;1.60;;;16.90;99.90;;;;;;5012631;28;20467;-69
2022/12/31 05:17:56;;;;;;;2.03;1.40;;;17.00;99.90;;;;;;5011144;28;20366;-69
2022/12/31 05:20:22;;;;;;;1.70;1.30;;;17.00;99.90;;;;;;5010189;28;20264;-69
2022/12/31 05:22:47;;;;;;;1.63;1.27;;;17.00;99.90;;;;;;5015382;28;20184;-69
2022/12/31 05:25:13;;;;;;;2.30;1.30;;;17.00;99.90;;;;;;5011371;28;20186;-69
2022/12/31 05:27:39;;;;;;;2.77;1.20;;;16.90;99.90;;;;;;5008667;28;20273;-69
2022/12/31 05:30:05;;;;;;;2.00;1.30;;;17.00;99.90;;;;;;5007347;28;20185;-67
2022/12/31 05:32:32;;;;;;;2.57;1.40;;;16.90;99.90;;;;;;5010222;28;20199;-67
2022/12/31 05:34:58;;;;;;;1.80;1.40;;;17.00;99.90;;;;;;4995586;28;21033;-67
2022/12/31 05:37:24;;;;;;;1.50;1.10;;;16.90;99.90;;;;;;5013582;28;20506;-67
2022/12/31 05:39:50;;;;;;;1.80;1.30;;;16.90;99.90;;;;;;5012487;28;20460;-67
2022/12/31 05:42:16;;;;;;;1.80;1.27;;;16.90;99.90;;;;;;5013273;28;20886;-67
2022/12/31 05:44:41;;;;;;;3.30;1.30;;;16.90;99.90;;;;;;5012770;28;20490;-69
2022/12/31 05:47:07;;;;;;;1.90;1.40;;;16.90;99.90;;;;;;5010046;28;20204;-69
2022/12/31 05:49:32;;;;;;;1.90;1.40;;;16.90;99.90;;;;;;5011894;28;20211;-70
2022/12/31 05:51:58;;;;;;;2.10;1.20;;;16.90;99.90;;;;;;5013139;28;20314;-70
2022/12/31 05:54:23;;;;;;;2.10;1.30;;;16.90;99.90;;;;;;5009261;28;20300;-70
2022/12/31 05:56:49;;;;;;;2.47;1.10;;;16.90;99.90;;;;;;5013375;28;20204;-70
2022/12/31 05:59:15;;;;;;;2.67;1.40;;;16.90;99.90;;;;;;5010669;28;20208;-71
2022/12/31 06:01:40;;;;;;;3.10;1.20;;;16.90;99.90;;;;;;5016559;28;20185;-71
2022/12/31 06:04:06;;;;;;;1.70;1.20;;;16.90;99.90;;;;;;5010329;28;20180;-71
2022/12/31 06:06:31;;;;;;;3.70;1.40;;;16.90;99.90;;;;;;5017747;28;20673;-70
2022/12/31 06:08:57;;;;;;;2.27;1.50;;;16.90;99.90;;;;;;5009045;28;20609;-70
2022/12/31 06:11:23;;;;;;;2.00;1.50;;;16.90;99.90;;;;;;5018821;28;20215;-70
2022/12/31 06:13:48;;;;;;;3.70;1.70;;;16.90;99.90;;;;;;5011719;28;20219;-69
2022/12/31 06:16:14;;;;;;;2.20;1.53;;;16.90;99.90;;;;;;5009895;28;20683;-70
2022/12/31 06:18:40;;;;;;;1.80;1.50;;;16.80;99.90;;;;;;5011472;28;20199;-70
2022/12/31 06:21:05;;;;;;;2.43;1.57;;;16.80;99.90;;;;;;5007187;28;20271;-69
2022/12/31 06:23:31;;;;;;;1.73;1.30;;;16.90;99.90;;;;;;5012341;28;20246;-69
2022/12/31 06:26:01;;;;;;;2.53;1.63;;;16.90;99.90;;;;;;5007240;28;20623;-70
2022/12/31 06:28:26;;;;;;;2.13;1.40;;;16.80;99.90;;;;;;5013106;28;20189;-70
2022/12/31 06:30:58;;;;;;;2.23;1.77;;;16.80;99.90;;;;;;5012306;28;20450;-70
2022/12/31 06:33:24;;;;;;;1.80;1.20;;;16.80;99.90;;;;;;5016443;28;20189;-70
2022/12/31 06:35:58;;;;;;;2.10;1.30;;;16.80;99.90;;;;;;5014957;28;20450;-70
2022/12/31 06:38:25;;;;;;;2.43;1.40;;;16.80;99.90;;;;;;5016032;28;20180;-71
2022/12/31 06:40:51;;;;;;;2.67;1.50;;;16.80;99.90;;;;;;5014679;28;20474;-71
2022/12/31 06:43:16;;;;;;;3.60;1.40;;;16.80;99.90;;;;;;5014546;28;20442;-70
2022/12/31 06:45:42;;;;;;;2.13;1.70;;;16.80;99.90;;;;;;5010504;28;20670;-71
2022/12/31 06:48:07;;;;;;;2.97;1.60;;;16.80;99.90;;;;;;5013591;28;20674;-71
2022/12/31 06:50:33;;;;;;;2.80;1.33;;;16.80;99.90;;;;;;5014865;28;20570;-71
2022/12/31 06:52:58;;;;;;;2.37;1.50;;;16.90;99.90;;;;;;5017275;28;20646;-71
2022/12/31 06:55:24;;;;;;;1.67;1.30;;;16.90;99.90;;;;;;5013824;28;20705;-70
2022/12/31 06:57:50;;;;;;;1.90;1.40;;;16.90;99.90;;;;;;5009134;28;20190;-71
2022/12/31 07:00:17;;;;;;;2.40;1.57;;;16.90;99.90;;;;;;5016668;28;21006;-69
2022/12/31 07:03:00;;;;;;;3.97;1.83;;;16.90;99.90;;;;;;5017448;28;20443;-69
2022/12/31 07:05:32;;;;;;;2.20;1.40;;;16.90;99.90;;;;;;5013809;28;20964;-69
2022/12/31 07:08:21;;;;;;;2.00;1.50;;;16.90;99.90;;;;;;5011919;28;20428;-70
2022/12/31 07:10:50;;;;;;;3.70;1.47;;;16.90;99.90;;;;;;5012503;28;20451;-71
2022/12/31 07:13:28;;;;;;;2.07;1.50;;;16.90;99.90;;;;;;5013478;28;20652;-71
2022/12/31 07:16:09;;;;;;;2.77;1.77;;;16.90;99.90;;;;;;5009959;28;20720;-70
2022/12/31 07:18:44;;;;;;;4.13;1.60;;;16.90;99.90;;;;;;5012303;28;20442;-69
2022/12/31 07:21:17;;;;;;;3.23;1.70;;;16.90;99.90;;;;;;5028767;28;21358;-69
2022/12/31 07:23:43;;;;;;;1.80;1.40;;;17.00;99.90;;;;;;5012692;28;20436;-69
2022/12/31 07:26:34;;;;;;;2.20;1.40;;;16.90;99.90;;;;;;5012658;28;20451;-69
2022/12/31 07:29:31;;;;;;;1.70;1.20;;;17.00;99.90;;;;;;5016621;28;20471;-69
2022/12/31 07:32:24;;;;;;;2.53;1.70;;;17.00;99.90;;;;;;5014643;28;20521;-69
2022/12/31 07:34:53;;;;;;;2.50;1.60;;;17.00;99.90;;;;;;5014514;28;20474;-69
2022/12/31 07:37:45;;;;;;;1.87;1.37;;;17.00;99.90;;;;;;5013677;28;20535;-69
2022/12/31 07:40:16;;;;;;;1.80;1.40;;;17.00;99.90;;;;;;5013765;28;20969;-70
2022/12/31 07:42:50;;;;;;;1.90;1.40;;;17.00;99.90;;;;;;5010318;28;20654;-70
2022/12/31 07:45:26;;;;;;;2.10;1.47;;;17.00;99.90;;;;;;5009213;28;20435;-70
2022/12/31 07:47:52;;;;;;;2.07;1.47;;;17.00;99.90;;;;;;5014560;28;20442;-70
2022/12/31 07:50:18;;;;;;;2.00;1.40;;;17.00;99.90;;;;;;5009295;28;20812;-69
2022/12/31 07:52:45;;;;;;;2.03;1.43;;;17.00;99.90;;;;;;5010634;28;20262;-69
2022/12/31 07:55:10;;;;;;;2.20;1.40;;;17.00;99.90;;;;;;5010576;28;20451;-69
2022/12/31 07:57:57;;;;;;;3.13;1.80;;;17.10;99.90;;;;;;5012205;28;20438;-69
2022/12/31 08:00:23;;;;;;;1.80;1.50;;;17.10;99.90;;;;;;5015368;28;20572;-69
2022/12/31 08:03:00;;;;;;;2.37;1.80;;;17.10;99.90;;;;;;5014395;28;20447;-69
2022/12/31 08:05:42;;;;;;;2.23;1.60;;;17.10;99.90;;;;;;5012258;28;20216;-71
2022/12/31 08:08:45;;;;;;;3.17;1.70;;;17.20;99.90;;;;;;5008227;28;20518;-70
2022/12/31 08:11:19;;;;;;;3.30;1.30;;;17.30;99.90;;;;;;5014378;28;20439;-69
2022/12/31 08:13:45;;;;;;;2.23;1.50;;;17.30;99.90;;;;;;5014229;28;21229;-69
2022/12/31 08:16:12;;;;;;;2.97;1.60;;;17.40;99.90;;;;;;5010885;28;20560;-68
2022/12/31 08:18:38;;;;;;;3.13;1.40;;;17.40;99.90;;;;;;5018524;28;20521;-69
2022/12/31 08:21:31;;;;;;;2.03;1.40;;;17.40;99.90;;;;;;5014199;28;21156;-69
2022/12/31 08:24:18;;;;;;;2.10;1.20;;;17.40;99.90;;;;;;5013228;28;21310;-68
2022/12/31 08:27:03;;;;;;;2.60;1.60;;;17.40;99.90;;;;;;5013288;28;20465;-68
2022/12/31 08:29:38;;;;;;;10.30;1.60;;;17.50;99.90;;;;;;5013872;28;20552;-68
2022/12/31 08:32:22;;;;;;;2.00;1.30;;;17.50;99.90;;;;;;5010470;28;20526;-69
2022/12/31 08:35:11;;;;;;;2.33;1.37;;;17.50;99.90;;;;;;5014756;28;21287;-68
2022/12/31 08:37:43;;;;;;;2.30;1.50;;;17.60;99.90;;;;;;5010740;28;20452;-68
2022/12/31 08:40:32;;;;;;;3.50;1.60;;;17.60;99.90;;;;;;5012419;28;20490;-69
2022/12/31 08:43:16;;;;;;;2.27;1.47;;;17.70;99.90;;;;;;5014032;28;20439;-69
2022/12/31 08:45:56;;;;;;;2.40;1.50;;;17.60;99.90;;;;;;5008023;28;20970;-69
2022/12/31 08:48:22;;;;;;;2.00;1.30;;;17.70;99.90;;;;;;5013435;28;20426;-68
2022/12/31 08:50:47;;;;;;;2.20;1.40;;;17.70;99.90;;;;;;5017100;28;20457;-68
2022/12/31 08:53:13;;;;;;;2.37;1.60;;;17.70;99.90;;;;;;5004633;28;20669;-70
2022/12/31 08:55:45;;;;;;;1.90;1.43;;;17.70;99.90;;;;;;5007741;28;20765;-70
2022/12/31 08:58:44;;;;;;;1.93;1.33;;;17.80;99.90;;;;;;5010253;28;20185;-70
2022/12/31 09:01:12;;;;;;;2.53;1.53;;;17.80;99.90;;;;;;5011509;28;20558;-70
2022/12/31 09:03:57;;;;;;;2.00;1.40;;;17.90;99.90;;;;;;5015258;28;20522;-70
2022/12/31 09:06:30;;;;;;;1.93;1.37;;;17.90;99.90;;;;;;5012869;28;20911;-70
2022/12/31 09:09:06;;;;;;;2.20;1.40;;;18.00;99.90;;;;;;5010233;28;20488;-70
2022/12/31 09:11:53;;;;;;;5.17;1.50;;;18.00;99.90;;;;;;5015156;28;20439;-70
2022/12/31 09:14:53;;;;;;;2.00;1.50;;;18.00;99.90;;;;;;5009313;28;20991;-70
2022/12/31 09:17:48;;;;;;;2.27;1.30;;;18.00;99.90;;;;;;5010863;28;20462;-69
2022/12/31 09:20:19;;;;;;;4.90;1.90;;;18.00;99.90;;;;;;5012610;28;20486;-69
2022/12/31 09:22:44;;;;;;;1.90;1.40;;;18.00;99.90;;;;;;5014690;28;20439;-69
2022/12/31 09:25:15;;;;;;;2.20;1.47;;;17.90;99.90;;;;;;5009563;28;21205;-69
2022/12/31 09:28:03;;;;;;;2.13;1.70;;;18.00;99.90;;;;;;5012071;28;20185;-70
2022/12/31 09:30:41;;;;;;;2.10;1.40;;;18.00;99.90;;;;;;5011944;28;20443;-70
2022/12/31 09:33:20;;;;;;;1.70;1.30;;;18.00;99.90;;;;;;5010010;28;20435;-70
2022/12/31 09:35:52;;;;;;;2.60;1.77;;;18.10;99.90;;;;;;5007463;28;20540;-70
2022/12/31 09:38:36;;;;;;;3.20;1.40;;;18.10;99.90;;;;;;5012125;28;20449;-70
2022/12/31 09:41:42;;;;;;;2.20;1.50;;;18.10;99.90;;;;;;5014403;28;20877;-69
2022/12/31 09:44:38;;;;;;;2.20;1.50;;;18.20;99.90;;;;;;5004718;28;20963;-70
2022/12/31 09:47:04;;;;;;;1.90;1.53;;;18.20;99.90;;;;;;5014115;28;20455;-70
2022/12/31 09:49:51;;;;;;;2.80;1.33;;;18.30;99.90;;;;;;5014147;28;20518;-70
2022/12/31 09:52:40;;;;;;;1.90;1.30;;;18.30;99.90;;;;;;5005746;28;20207;-70
2022/12/31 09:55:29;;;;;;;2.53;1.50;;;18.30;99.90;;;;;;5004050;28;20873;-70
2022/12/31 09:58:26;;;;;;;2.80;1.40;;;18.30;99.90;;;;;;5009001;28;20818;-70
2022/12/31 10:01:00;;;;;;;2.47;1.50;;;18.30;99.90;;;;;;5014523;28;20466;-70
2022/12/31 10:04:15;;;;;;;2.20;1.40;;;18.40;99.90;;;;;;5006224;28;20447;-70
2022/12/31 10:07:02;;;;;;;2.67;1.70;;;18.40;99.90;;;;;;5025219;28;20931;-69
2022/12/31 10:09:42;;;;;;;1.70;1.40;;;18.40;99.90;;;;;;5013099;28;20465;-71
2022/12/31 10:12:19;;;;;;;2.43;1.70;;;18.40;99.90;;;;;;5012970;28;20956;-71
2022/12/31 10:15:06;;;;;;;2.20;1.70;;;18.50;99.90;;;;;;5012560;28;20816;-71
2022/12/31 10:17:53;;;;;;;3.10;1.80;;;18.50;99.90;;;;;;5008918;28;20837;-70
2022/12/31 10:20:29;;;;;;;1.70;1.30;;;18.50;99.90;;;;;;5010671;28;20532;-70
2022/12/31 10:23:32;;;;;;;2.97;1.70;;;18.60;99.90;;;;;;5014393;28;20808;-69
2022/12/31 10:26:24;;;;;;;2.13;1.43;;;18.70;99.90;;;;;;5008795;28;20457;-71
2022/12/31 10:29:27;;;;;;;3.47;1.73;;;18.70;99.90;;;;;;5006009;28;20432;-71
2022/12/31 10:32:11;;;;;;;4.47;1.60;;;18.80;99.90;;;;;;5009260;28;20448;-70
2022/12/31 10:34:43;;;;;;;1.77;1.33;;;18.80;99.90;;;;;;5007210;28;20433;-70
2022/12/31 10:37:18;;;;;;;2.10;1.50;;;18.90;99.90;;;;;;4997120;28;20463;-71
2022/12/31 10:39:52;;;;;;;4.63;1.50;;;18.90;99.90;;;;;;5002898;28;20462;-72
2022/12/31 10:42:29;;;;;;;3.23;1.60;;;18.90;99.90;;;;;;4998600;28;20560;-72
2022/12/31 10:45:07;;;;;;;1.90;1.50;;;18.90;99.90;;;;;;5009807;28;20435;-68
2022/12/31 10:47:58;;;;;;;2.70;1.67;;;18.90;99.90;;;;;;5004968;28;20514;-75
2022/12/31 10:51:01;;;;;;;3.80;1.37;;;19.00;99.90;;;;;;4996310;28;20438;-68
2022/12/31 10:53:35;;;;;;;1.90;1.50;;;19.00;99.90;;;;;;5002216;28;20640;-68
2022/12/31 10:56:26;;;;;;;3.50;1.70;;;19.00;99.90;;;;;;5005771;28;20511;-69
2022/12/31 10:59:13;;;;;;;2.50;1.67;;;19.10;99.90;;;;;;5008040;28;20432;-69
2022/12/31 11:01:57;;;;;;;2.63;1.63;;;19.10;99.90;;;;;;5009232;28;20477;-68
2022/12/31 11:04:50;;;;;;;4.70;1.67;;;19.10;99.90;;;;;;5004461;28;20854;-67
2022/12/31 11:07:26;;;;;;;2.50;1.67;;;19.20;99.90;;;;;;5000573;28;20458;-68
2022/12/31 11:10:12;;;;;;;2.10;1.60;;;19.20;99.90;;;;;;5004472;28;20453;-69
2022/12/31 11:12:46;;;;;;;2.37;1.67;;;19.30;99.90;;;;;;5006605;28;20430;-72
2022/12/31 11:15:20;;;;;;;3.50;1.60;;;19.30;99.90;;;;;;5008281;28;20521;-72
2022/12/31 11:18:04;;;;;;;1.70;1.47;;;19.40;99.90;;;;;;5009885;28;20991;-77
2022/12/31 11:20:30;;;;;;;2.47;1.60;;;19.30;99.90;;;;;;5010679;28;20463;-75
2022/12/31 11:23:03;;;;;;;2.53;1.53;;;19.40;99.90;;;;;;5010702;28;20830;-74
2022/12/31 11:26:00;;;;;;;2.50;1.60;;;19.40;99.90;;;;;;5009710;28;20674;-74
2022/12/31 11:28:34;;;;;;;1.83;1.47;;;19.50;99.90;;;;;;5008586;28;20435;-74
2022/12/31 11:31:05;;;;;;;2.63;1.63;;;19.60;99.90;;;;;;4998872;28;21315;-72
2022/12/31 11:34:04;;;;;;;1.83;1.50;;;19.60;99.90;;;;;;5004680;28;20886;-73
2022/12/31 11:36:32;;;;;;;2.50;1.70;;;19.60;99.90;;;;;;5009604;28;20550;-82
2022/12/31 11:39:37;;;;;;;1.93;1.50;;;19.70;99.90;;;;;;5005496;28;20481;-71
2022/12/31 11:42:20;;;;;;;2.10;1.70;;;19.70;99.90;;;;;;5006848;28;20463;-70
2022/12/31 11:44:50;;;;;;;2.93;1.63;;;19.80;99.90;;;;;;5007359;28;20481;-73
2022/12/31 11:47:41;;;;;;;2.70;1.80;;;19.80;99.90;;;;;;5001963;28;20780;-71
2022/12/31 11:50:14;;;;;;;2.00;1.50;;;19.80;99.90;;;;;;5006580;28;20586;-71
2022/12/31 11:53:07;;;;;;;2.30;1.53;;;19.90;99.90;;;;;;5008689;28;20451;-69
2022/12/31 11:55:46;;;;;;;2.50;1.53;;;19.90;99.90;;;;;;5006699;28;20455;-70
2022/12/31 11:58:19;;;;;;;2.63;1.30;;;20.00;99.90;;;;;;5004481;28;20439;-71
2022/12/31 12:00:55;;;;;;;1.70;1.30;;;20.10;99.90;;;;;;5003223;28;20553;-74
2022/12/31 12:03:21;;;;;;;2.40;1.40;;;20.30;99.90;;;;;;5004461;28;20462;-70
2022/12/31 12:05:47;;;;;;;1.70;1.40;;;20.60;99.90;;;;;;5009860;28;20446;-69
2022/12/31 12:08:14;;;;;;;2.10;1.60;;;20.90;99.90;;;;;;5005007;28;20798;-71
2022/12/31 12:10:45;;;;;;;2.10;1.57;;;21.00;99.90;;;;;;5012219;28;20690;-70
2022/12/31 12:13:12;;;;;;;1.97;1.50;;;20.90;99.90;;;;;;5010429;28;20776;-70
2022/12/31 12:15:48;;;;;;;2.60;1.83;;;20.90;99.90;;;;;;5008782;28;20490;-70
2022/12/31 12:18:35;;;;;;;2.10;1.67;;;20.90;99.90;;;;;;5012569;28;20496;-72
2022/12/31 12:21:14;;;;;;;2.20;1.70;;;20.90;99.90;;;;;;5014194;28;20799;-74
2022/12/31 12:23:41;;;;;;;2.07;1.60;;;21.00;99.90;;;;;;5010076;28;20466;-74
2022/12/31 12:26:34;;;;;;;1.90;1.53;;;21.00;99.90;;;;;;5010135;28;20984;-74
2022/12/31 12:29:15;;;;;;;2.20;1.70;;;21.00;99.90;;;;;;5007077;28;20451;-74
2022/12/31 12:31:41;;;;;;;2.17;1.60;;;21.10;99.90;;;;;;5012422;28;21061;-74
2022/12/31 12:34:25;;;;;;;1.80;1.50;;;21.20;99.90;;;;;;5010311;28;20498;-75
2022/12/31 12:36:50;;;;;;;2.07;1.50;;;21.30;99.90;;;;;;5012790;28;20469;-75
2022/12/31 12:39:25;;;;;;;4.67;2.47;;;21.20;99.90;;;;;;5013561;28;20435;-71
2022/12/31 12:42:11;;;;;;;2.30;1.70;;;21.40;99.90;;;;;;5011507;28;20196;-69
2022/12/31 12:44:39;;;;;;;2.00;1.57;;;21.40;99.90;;;;;;5012152;28;20443;-73
2022/12/31 12:47:07;;;;;;;3.30;1.80;;;21.40;99.90;;;;;;5009774;28;20451;-71
2022/12/31 12:49:42;;;;;;;1.87;1.50;;;21.40;99.90;;;;;;5013811;28;20453;-72
2022/12/31 12:52:35;;;;;;;3.27;2.10;;;21.40;99.90;;;;;;5012449;28;20551;-71
2022/12/31 12:55:30;;;;;;;2.17;1.53;;;21.40;99.90;;;;;;5005126;28;21023;-72
2022/12/31 12:58:19;;;;;;;2.73;1.70;;;21.30;99.90;;;;;;5010968;28;20475;-72
2022/12/31 13:01:22;;;;;;;3.27;1.90;;;21.30;99.90;;;;;;5012519;28;20470;-71
2022/12/31 13:04:18;;;;;;;3.73;1.63;;;21.20;99.90;;;;;;5011696;28;20443;-72
2022/12/31 13:07:18;;;;;;;1.90;1.50;;;21.10;99.90;;;;;;5012182;28;20450;-71
2022/12/31 13:09:53;;;;;;;1.90;1.50;;;21.10;99.90;;;;;;5017192;28;20454;-71
2022/12/31 13:12:50;;;;;;;3.80;2.07;;;21.00;99.90;;;;;;5009177;28;20440;-70
2022/12/31 13:15:40;;;;;;;4.37;1.83;;;20.90;99.90;;;;;;5011905;28;20777;-71
2022/12/31 13:18:45;;;;;;;1.90;1.57;;;20.90;99.90;;;;;;5014268;28;20522;-70
2022/12/31 13:21:31;;;;;;;2.73;1.70;;;20.90;99.90;;;;;;5012548;28;21320;-70
2022/12/31 13:24:17;;;;;;;3.40;1.40;;;20.90;99.90;;;;;;5009170;28;20431;-70
2022/12/31 13:27:04;;;;;;;1.67;1.30;;;21.00;99.90;;;;;;5005503;28;20474;-70
2022/12/31 13:29:33;;;;;;;2.23;1.50;;;20.90;99.90;;;;;;5007625;28;20866;-70
2022/12/31 13:32:03;;;;;;;2.13;1.67;;;20.90;99.90;;;;;;5007231;28;20503;-70